sensor_id;sensor_type;location;lat;lon;timestamp;P1;durP1;ratioP1;P2;durP2;ratioP2
49440;SDS011;35317;51.978;6.296;2023-07-20T00:02:10;5.82;;;3.85;;
49440;SDS011;35317;51.978;6.296;2023-07-20T00:07:10;5.25;;;3.55;;
49440;SDS011;35317;51.978;6.296;2023-07-20T00:12:11;7.38;;;4.40;;
49440;SDS011;35317;51.978;6.296;2023-07-20T00:17:12;6.68;;;3.85;;
49440;SDS011;35317;51.978;6.296;2023-07-20T00:22:13;7.28;;;4.07;;
49440;SDS011;35317;51.978;6.296;2023-07-20T00:27:13;7.82;;;4.35;;
49440;SDS011;35317;51.978;6.296;2023-07-20T00:32:14;5.78;;;4.15;;
49440;SDS011;35317;51.978;6.296;2023-07-20T00:37:15;8.70;;;3.97;;
49440;SDS011;35317;51.978;6.296;2023-07-20T00:42:16;9.85;;;4.80;;
49440;SDS011;35317;51.978;6.296;2023-07-20T00:47:17;6.47;;;4.90;;
49440;SDS011;35317;51.978;6.296;2023-07-20T00:52:17;6.82;;;4.53;;
49440;SDS011;35317;51.978;6.296;2023-07-20T00:57:20;5.53;;;3.77;;
49440;SDS011;35317;51.978;6.296;2023-07-20T01:02:23;6.07;;;4.60;;
49440;SDS011;35317;51.978;6.296;2023-07-20T01:07:28;8.38;;;4.20;;
49440;SDS011;35317;51.978;6.296;2023-07-20T01:17:47;6.68;;;3.78;;
49440;SDS011;35317;51.978;6.296;2023-07-20T01:22:57;7.60;;;3.75;;
49440;SDS011;35317;51.978;6.296;2023-07-20T01:33:26;7.20;;;4.40;;
49440;SDS011;35317;51.978;6.296;2023-07-20T01:38:29;8.93;;;4.07;;
49440;SDS011;35317;51.978;6.296;2023-07-20T01:43:30;6.50;;;4.20;;
49440;SDS011;35317;51.978;6.296;2023-07-20T01:48:31;5.78;;;3.92;;
49440;SDS011;35317;51.978;6.296;2023-07-20T01:53:32;5.35;;;3.47;;
49440;SDS011;35317;51.978;6.296;2023-07-20T01:58:33;3.67;;;3.00;;
49440;SDS011;35317;51.978;6.296;2023-07-20T02:03:33;3.03;;;2.53;;
49440;SDS011;35317;51.978;6.296;2023-07-20T02:08:34;3.25;;;2.47;;
49440;SDS011;35317;51.978;6.296;2023-07-20T02:13:36;5.22;;;2.60;;
49440;SDS011;35317;51.978;6.296;2023-07-20T02:18:36;3.05;;;2.50;;
49440;SDS011;35317;51.978;6.296;2023-07-20T02:23:37;3.72;;;2.70;;
49440;SDS011;35317;51.978;6.296;2023-07-20T02:28:38;4.95;;;3.25;;
49440;SDS011;35317;51.978;6.296;2023-07-20T02:33:39;6.55;;;3.42;;
49440;SDS011;35317;51.978;6.296;2023-07-20T02:38:39;4.60;;;3.50;;
49440;SDS011;35317;51.978;6.296;2023-07-20T02:43:40;5.53;;;3.33;;
49440;SDS011;35317;51.978;6.296;2023-07-20T02:48:41;3.38;;;2.80;;
49440;SDS011;35317;51.978;6.296;2023-07-20T02:53:42;4.35;;;3.00;;
49440;SDS011;35317;51.978;6.296;2023-07-20T02:58:42;4.45;;;2.85;;
49440;SDS011;35317;51.978;6.296;2023-07-20T03:03:43;3.38;;;2.80;;
49440;SDS011;35317;51.978;6.296;2023-07-20T03:08:46;3.13;;;2.80;;
49440;SDS011;35317;51.978;6.296;2023-07-20T03:13:48;4.35;;;3.38;;
49440;SDS011;35317;51.978;6.296;2023-07-20T03:18:49;3.45;;;2.83;;
49440;SDS011;35317;51.978;6.296;2023-07-20T03:23:51;4.30;;;3.22;;
49440;SDS011;35317;51.978;6.296;2023-07-20T03:28:51;5.38;;;3.00;;
49440;SDS011;35317;51.978;6.296;2023-07-20T03:33:52;4.30;;;2.88;;
49440;SDS011;35317;51.978;6.296;2023-07-20T03:38:53;3.05;;;2.55;;
49440;SDS011;35317;51.978;6.296;2023-07-20T03:43:54;4.50;;;2.90;;
49440;SDS011;35317;51.978;6.296;2023-07-20T03:48:55;6.22;;;3.05;;
49440;SDS011;35317;51.978;6.296;2023-07-20T03:53:55;6.85;;;3.10;;
49440;SDS011;35317;51.978;6.296;2023-07-20T03:58:56;4.07;;;3.03;;
49440;SDS011;35317;51.978;6.296;2023-07-20T04:03:57;5.97;;;3.28;;
49440;SDS011;35317;51.978;6.296;2023-07-20T04:08:58;3.35;;;2.50;;
49440;SDS011;35317;51.978;6.296;2023-07-20T04:13:58;6.75;;;4.03;;
49440;SDS011;35317;51.978;6.296;2023-07-20T04:18:59;5.35;;;3.58;;
49440;SDS011;35317;51.978;6.296;2023-07-20T04:24:00;7.60;;;4.75;;
49440;SDS011;35317;51.978;6.296;2023-07-20T04:29:01;6.60;;;4.63;;
49440;SDS011;35317;51.978;6.296;2023-07-20T04:34:01;5.95;;;4.47;;
49440;SDS011;35317;51.978;6.296;2023-07-20T04:39:02;5.88;;;4.05;;
49440;SDS011;35317;51.978;6.296;2023-07-20T04:44:04;5.75;;;4.05;;
49440;SDS011;35317;51.978;6.296;2023-07-20T04:49:05;4.53;;;3.50;;
49440;SDS011;35317;51.978;6.296;2023-07-20T04:54:06;7.22;;;3.60;;
49440;SDS011;35317;51.978;6.296;2023-07-20T04:59:07;4.70;;;3.40;;
49440;SDS011;35317;51.978;6.296;2023-07-20T05:04:08;4.97;;;3.13;;
49440;SDS011;35317;51.978;6.296;2023-07-20T05:09:09;3.83;;;2.72;;
49440;SDS011;35317;51.978;6.296;2023-07-20T05:14:09;4.25;;;3.03;;
49440;SDS011;35317;51.978;6.296;2023-07-20T05:19:10;5.07;;;2.80;;
49440;SDS011;35317;51.978;6.296;2023-07-20T05:24:11;3.47;;;2.42;;
49440;SDS011;35317;51.978;6.296;2023-07-20T05:29:12;3.35;;;2.55;;
49440;SDS011;35317;51.978;6.296;2023-07-20T05:34:12;3.17;;;2.42;;
49440;SDS011;35317;51.978;6.296;2023-07-20T05:39:13;4.38;;;2.67;;
49440;SDS011;35317;51.978;6.296;2023-07-20T05:44:14;3.50;;;2.65;;
49440;SDS011;35317;51.978;6.296;2023-07-20T05:49:15;2.83;;;2.20;;
49440;SDS011;35317;51.978;6.296;2023-07-20T05:54:16;2.55;;;2.35;;
49440;SDS011;35317;51.978;6.296;2023-07-20T05:59:17;4.22;;;2.40;;
49440;SDS011;35317;51.978;6.296;2023-07-20T06:04:18;2.70;;;2.03;;
49440;SDS011;35317;51.978;6.296;2023-07-20T06:09:18;2.80;;;2.10;;
49440;SDS011;35317;51.978;6.296;2023-07-20T06:14:19;2.03;;;1.75;;
49440;SDS011;35317;51.978;6.296;2023-07-20T06:19:20;4.75;;;1.90;;
49440;SDS011;35317;51.978;6.296;2023-07-20T06:24:22;2.83;;;1.90;;
49440;SDS011;35317;51.978;6.296;2023-07-20T06:29:23;1.42;;;1.33;;
49440;SDS011;35317;51.978;6.296;2023-07-20T06:34:24;2.05;;;1.40;;
49440;SDS011;35317;51.978;6.296;2023-07-20T06:39:25;2.15;;;1.45;;
49440;SDS011;35317;51.978;6.296;2023-07-20T06:44:25;2.70;;;1.20;;
49440;SDS011;35317;51.978;6.296;2023-07-20T06:49:27;2.42;;;1.52;;
49440;SDS011;35317;51.978;6.296;2023-07-20T06:54:28;2.70;;;1.52;;
49440;SDS011;35317;51.978;6.296;2023-07-20T06:59:29;1.33;;;1.00;;
49440;SDS011;35317;51.978;6.296;2023-07-20T07:04:30;1.30;;;1.13;;
49440;SDS011;35317;51.978;6.296;2023-07-20T07:09:31;1.33;;;0.90;;
49440;SDS011;35317;51.978;6.296;2023-07-20T07:14:32;1.40;;;1.00;;
49440;SDS011;35317;51.978;6.296;2023-07-20T07:19:33;2.45;;;1.00;;
49440;SDS011;35317;51.978;6.296;2023-07-20T07:24:33;1.00;;;0.90;;
49440;SDS011;35317;51.978;6.296;2023-07-20T07:29:35;1.48;;;1.00;;
49440;SDS011;35317;51.978;6.296;2023-07-20T07:34:35;2.22;;;0.80;;
49440;SDS011;35317;51.978;6.296;2023-07-20T07:39:37;1.50;;;0.98;;
49440;SDS011;35317;51.978;6.296;2023-07-20T07:44:38;0.93;;;0.65;;
49440;SDS011;35317;51.978;6.296;2023-07-20T07:49:39;2.58;;;0.70;;
49440;SDS011;35317;51.978;6.296;2023-07-20T07:54:40;0.73;;;0.60;;
49440;SDS011;35317;51.978;6.296;2023-07-20T07:59:41;0.32;;;0.32;;
49440;SDS011;35317;51.978;6.296;2023-07-20T08:04:41;0.98;;;0.60;;
49440;SDS011;35317;51.978;6.296;2023-07-20T08:09:42;0.40;;;0.30;;
49440;SDS011;35317;51.978;6.296;2023-07-20T08:14:43;0.52;;;0.40;;
49440;SDS011;35317;51.978;6.296;2023-07-20T08:19:44;0.43;;;0.40;;
49440;SDS011;35317;51.978;6.296;2023-07-20T08:24:47;0.63;;;0.43;;
49440;SDS011;35317;51.978;6.296;2023-07-20T08:29:48;2.72;;;0.50;;
49440;SDS011;35317;51.978;6.296;2023-07-20T08:34:49;0.82;;;0.50;;
49440;SDS011;35317;51.978;6.296;2023-07-20T08:39:50;0.38;;;0.38;;
49440;SDS011;35317;51.978;6.296;2023-07-20T08:44:52;0.50;;;0.40;;
49440;SDS011;35317;51.978;6.296;2023-07-20T08:49:54;0.77;;;0.35;;
49440;SDS011;35317;51.978;6.296;2023-07-20T08:54:55;0.38;;;0.38;;
49440;SDS011;35317;51.978;6.296;2023-07-20T08:59:56;1.83;;;0.50;;
49440;SDS011;35317;51.978;6.296;2023-07-20T09:04:57;0.60;;;0.43;;
49440;SDS011;35317;51.978;6.296;2023-07-20T09:09:58;0.95;;;0.50;;
49440;SDS011;35317;51.978;6.296;2023-07-20T09:14:59;0.40;;;0.40;;
49440;SDS011;35317;51.978;6.296;2023-07-20T09:20:04;0.40;;;0.40;;
49440;SDS011;35317;51.978;6.296;2023-07-20T09:25:14;1.23;;;0.50;;
49440;SDS011;35317;51.978;6.296;2023-07-20T09:30:16;1.23;;;0.70;;
49440;SDS011;35317;51.978;6.296;2023-07-20T09:35:21;1.30;;;0.40;;
49440;SDS011;35317;51.978;6.296;2023-07-20T09:40:22;0.47;;;0.40;;
49440;SDS011;35317;51.978;6.296;2023-07-20T09:45:41;0.30;;;0.30;;
49440;SDS011;35317;51.978;6.296;2023-07-20T09:50:43;0.47;;;0.47;;
49440;SDS011;35317;51.978;6.296;2023-07-20T09:55:50;0.93;;;0.40;;
49440;SDS011;35317;51.978;6.296;2023-07-20T10:00:54;1.60;;;0.50;;
49440;SDS011;35317;51.978;6.296;2023-07-20T10:11:03;2.28;;;0.32;;
49440;SDS011;35317;51.978;6.296;2023-07-20T10:16:10;0.30;;;0.30;;
49440;SDS011;35317;51.978;6.296;2023-07-20T10:21:16;0.50;;;0.30;;
49440;SDS011;35317;51.978;6.296;2023-07-20T10:26:18;0.57;;;0.20;;
49440;SDS011;35317;51.978;6.296;2023-07-20T10:31:18;0.20;;;0.20;;
49440;SDS011;35317;51.978;6.296;2023-07-20T10:36:26;0.45;;;0.30;;
49440;SDS011;35317;51.978;6.296;2023-07-20T10:41:28;0.85;;;0.40;;
49440;SDS011;35317;51.978;6.296;2023-07-20T10:51:43;0.32;;;0.32;;
49440;SDS011;35317;51.978;6.296;2023-07-20T10:56:48;4.25;;;0.43;;
49440;SDS011;35317;51.978;6.296;2023-07-20T11:01:49;0.47;;;0.40;;
49440;SDS011;35317;51.978;6.296;2023-07-20T11:06:55;1.00;;;0.38;;
49440;SDS011;35317;51.978;6.296;2023-07-20T11:12:08;0.45;;;0.30;;
49440;SDS011;35317;51.978;6.296;2023-07-20T11:17:17;1.40;;;0.50;;
49440;SDS011;35317;51.978;6.296;2023-07-20T11:22:22;0.98;;;0.40;;
49440;SDS011;35317;51.978;6.296;2023-07-20T11:27:23;1.08;;;0.40;;
49440;SDS011;35317;51.978;6.296;2023-07-20T11:32:24;0.77;;;0.35;;
49440;SDS011;35317;51.978;6.296;2023-07-20T11:37:24;0.63;;;0.40;;
49440;SDS011;35317;51.978;6.296;2023-07-20T11:42:25;0.98;;;0.40;;
49440;SDS011;35317;51.978;6.296;2023-07-20T11:47:28;0.65;;;0.45;;
49440;SDS011;35317;51.978;6.296;2023-07-20T11:52:29;0.50;;;0.40;;
49440;SDS011;35317;51.978;6.296;2023-07-20T11:57:31;0.40;;;0.40;;
49440;SDS011;35317;51.978;6.296;2023-07-20T12:02:32;0.85;;;0.50;;
49440;SDS011;35317;51.978;6.296;2023-07-20T12:07:35;0.65;;;0.30;;
49440;SDS011;35317;51.978;6.296;2023-07-20T12:12:40;0.43;;;0.43;;
49440;SDS011;35317;51.978;6.296;2023-07-20T12:17:43;0.60;;;0.50;;
49440;SDS011;35317;51.978;6.296;2023-07-20T12:22:45;0.20;;;0.20;;
49440;SDS011;35317;51.978;6.296;2023-07-20T12:27:46;0.85;;;0.38;;
49440;SDS011;35317;51.978;6.296;2023-07-20T12:32:48;0.73;;;0.40;;
49440;SDS011;35317;51.978;6.296;2023-07-20T12:37:49;0.57;;;0.40;;
49440;SDS011;35317;51.978;6.296;2023-07-20T12:42:51;0.30;;;0.30;;
49440;SDS011;35317;51.978;6.296;2023-07-20T12:47:52;0.70;;;0.30;;
49440;SDS011;35317;51.978;6.296;2023-07-20T12:52:53;3.00;;;0.63;;
49440;SDS011;35317;51.978;6.296;2023-07-20T12:57:53;1.02;;;0.55;;
49440;SDS011;35317;51.978;6.296;2023-07-20T13:02:55;0.38;;;0.38;;
49440;SDS011;35317;51.978;6.296;2023-07-20T13:07:55;3.03;;;0.50;;
49440;SDS011;35317;51.978;6.296;2023-07-20T13:12:56;0.63;;;0.50;;
49440;SDS011;35317;51.978;6.296;2023-07-20T13:17:57;1.15;;;0.60;;
49440;SDS011;35317;51.978;6.296;2023-07-20T13:22:59;0.70;;;0.70;;
49440;SDS011;35317;51.978;6.296;2023-07-20T13:27:59;1.02;;;0.70;;
49440;SDS011;35317;51.978;6.296;2023-07-20T13:33:00;1.85;;;0.70;;
49440;SDS011;35317;51.978;6.296;2023-07-20T13:38:01;1.40;;;0.80;;
49440;SDS011;35317;51.978;6.296;2023-07-20T13:43:02;0.82;;;0.70;;
49440;SDS011;35317;51.978;6.296;2023-07-20T13:48:02;1.75;;;0.90;;
49440;SDS011;35317;51.978;6.296;2023-07-20T13:53:03;2.03;;;1.00;;
49440;SDS011;35317;51.978;6.296;2023-07-20T13:58:04;1.50;;;0.63;;
49440;SDS011;35317;51.978;6.296;2023-07-20T14:03:05;0.98;;;0.70;;
49440;SDS011;35317;51.978;6.296;2023-07-20T14:08:06;0.60;;;0.60;;
49440;SDS011;35317;51.978;6.296;2023-07-20T14:13:07;0.85;;;0.60;;
49440;SDS011;35317;51.978;6.296;2023-07-20T14:18:07;0.60;;;0.50;;
49440;SDS011;35317;51.978;6.296;2023-07-20T14:23:08;2.35;;;0.80;;
49440;SDS011;35317;51.978;6.296;2023-07-20T14:28:09;4.40;;;0.60;;
49440;SDS011;35317;51.978;6.296;2023-07-20T14:33:10;0.52;;;0.50;;
49440;SDS011;35317;51.978;6.296;2023-07-20T14:38:11;0.70;;;0.70;;
49440;SDS011;35317;51.978;6.296;2023-07-20T14:43:12;1.42;;;0.80;;
49440;SDS011;35317;51.978;6.296;2023-07-20T14:48:14;2.85;;;0.50;;
49440;SDS011;35317;51.978;6.296;2023-07-20T14:53:14;0.73;;;0.60;;
49440;SDS011;35317;51.978;6.296;2023-07-20T14:58:15;1.40;;;0.70;;
49440;SDS011;35317;51.978;6.296;2023-07-20T15:03:16;2.38;;;0.80;;
49440;SDS011;35317;51.978;6.296;2023-07-20T15:08:17;1.67;;;0.80;;
49440;SDS011;35317;51.978;6.296;2023-07-20T15:13:19;0.95;;;0.70;;
49440;SDS011;35317;51.978;6.296;2023-07-20T15:18:19;0.88;;;0.70;;
49440;SDS011;35317;51.978;6.296;2023-07-20T15:23:20;0.93;;;0.70;;
49440;SDS011;35317;51.978;6.296;2023-07-20T15:28:22;1.77;;;0.77;;
49440;SDS011;35317;51.978;6.296;2023-07-20T15:33:22;1.25;;;0.70;;
49440;SDS011;35317;51.978;6.296;2023-07-20T15:43:37;0.40;;;0.40;;
49440;SDS011;35317;51.978;6.296;2023-07-20T15:48:38;0.50;;;0.50;;
49440;SDS011;35317;51.978;6.296;2023-07-20T15:53:39;0.45;;;0.40;;
49440;SDS011;35317;51.978;6.296;2023-07-20T15:58:40;0.50;;;0.40;;
49440;SDS011;35317;51.978;6.296;2023-07-20T16:03:41;0.70;;;0.50;;
49440;SDS011;35317;51.978;6.296;2023-07-20T16:08:44;0.90;;;0.60;;
49440;SDS011;35317;51.978;6.296;2023-07-20T16:13:46;0.80;;;0.55;;
49440;SDS011;35317;51.978;6.296;2023-07-20T16:18:50;0.90;;;0.50;;
49440;SDS011;35317;51.978;6.296;2023-07-20T16:23:51;0.77;;;0.60;;
49440;SDS011;35317;51.978;6.296;2023-07-20T16:28:52;1.75;;;0.70;;
49440;SDS011;35317;51.978;6.296;2023-07-20T16:33:52;0.93;;;0.63;;
49440;SDS011;35317;51.978;6.296;2023-07-20T16:38:56;1.17;;;0.68;;
49440;SDS011;35317;51.978;6.296;2023-07-20T16:43:57;0.77;;;0.70;;
49440;SDS011;35317;51.978;6.296;2023-07-20T16:49:01;1.05;;;0.55;;
49440;SDS011;35317;51.978;6.296;2023-07-20T16:59:07;0.52;;;0.50;;
49440;SDS011;35317;51.978;6.296;2023-07-20T17:04:08;1.17;;;0.68;;
49440;SDS011;35317;51.978;6.296;2023-07-20T17:09:09;0.82;;;0.50;;
49440;SDS011;35317;51.978;6.296;2023-07-20T17:14:10;0.95;;;0.75;;
49440;SDS011;35317;51.978;6.296;2023-07-20T17:19:10;1.77;;;0.60;;
49440;SDS011;35317;51.978;6.296;2023-07-20T17:24:11;1.90;;;0.90;;
49440;SDS011;35317;51.978;6.296;2023-07-20T17:29:13;0.70;;;0.60;;
49440;SDS011;35317;51.978;6.296;2023-07-20T17:47:53;1.17;;;0.60;;
49440;SDS011;35317;51.978;6.296;2023-07-20T17:52:54;1.08;;;0.82;;
49440;SDS011;35317;51.978;6.296;2023-07-20T17:57:56;2.25;;;1.30;;
49440;SDS011;35317;51.978;6.296;2023-07-20T18:02:56;1.95;;;1.10;;
49440;SDS011;35317;51.978;6.296;2023-07-20T18:07:58;1.98;;;1.10;;
49440;SDS011;35317;51.978;6.296;2023-07-20T18:12:59;1.00;;;0.82;;
49440;SDS011;35317;51.978;6.296;2023-07-20T18:18:00;3.33;;;0.60;;
49440;SDS011;35317;51.978;6.296;2023-07-20T18:28:53;1.00;;;0.80;;
49440;SDS011;35317;51.978;6.296;2023-07-20T18:33:54;0.82;;;0.60;;
49440;SDS011;35317;51.978;6.296;2023-07-20T18:38:54;0.70;;;0.70;;
49440;SDS011;35317;51.978;6.296;2023-07-20T18:43:56;1.27;;;0.80;;
49440;SDS011;35317;51.978;6.296;2023-07-20T18:48:56;1.45;;;0.80;;
49440;SDS011;35317;51.978;6.296;2023-07-20T18:53:58;1.58;;;0.70;;
49440;SDS011;35317;51.978;6.296;2023-07-20T18:58:59;2.33;;;0.60;;
49440;SDS011;35317;51.978;6.296;2023-07-20T19:04:00;0.80;;;0.80;;
49440;SDS011;35317;51.978;6.296;2023-07-20T19:09:01;2.05;;;0.80;;
49440;SDS011;35317;51.978;6.296;2023-07-20T19:14:02;0.75;;;0.70;;
49440;SDS011;35317;51.978;6.296;2023-07-20T19:19:03;2.10;;;0.70;;
49440;SDS011;35317;51.978;6.296;2023-07-20T19:24:04;2.38;;;0.80;;
49440;SDS011;35317;51.978;6.296;2023-07-20T19:29:05;1.70;;;0.93;;
49440;SDS011;35317;51.978;6.296;2023-07-20T19:34:06;1.50;;;0.90;;
49440;SDS011;35317;51.978;6.296;2023-07-20T19:39:07;1.48;;;0.90;;
49440;SDS011;35317;51.978;6.296;2023-07-20T19:44:09;1.65;;;1.00;;
49440;SDS011;35317;51.978;6.296;2023-07-20T19:54:35;2.35;;;1.00;;
49440;SDS011;35317;51.978;6.296;2023-07-20T19:59:36;2.13;;;1.30;;
49440;SDS011;35317;51.978;6.296;2023-07-20T20:04:37;1.00;;;0.90;;
49440;SDS011;35317;51.978;6.296;2023-07-20T20:09:42;0.98;;;0.98;;
49440;SDS011;35317;51.978;6.296;2023-07-20T20:20:30;1.85;;;0.82;;
49440;SDS011;35317;51.978;6.296;2023-07-20T20:31:04;1.20;;;1.10;;
49440;SDS011;35317;51.978;6.296;2023-07-20T20:36:17;3.47;;;1.33;;
49440;SDS011;35317;51.978;6.296;2023-07-20T20:41:18;2.38;;;1.70;;
49440;SDS011;35317;51.978;6.296;2023-07-20T20:46:19;1.30;;;1.20;;
49440;SDS011;35317;51.978;6.296;2023-07-20T20:57:14;1.85;;;1.20;;
49440;SDS011;35317;51.978;6.296;2023-07-20T21:02:16;1.27;;;1.08;;
49440;SDS011;35317;51.978;6.296;2023-07-20T21:07:18;1.52;;;1.20;;
49440;SDS011;35317;51.978;6.296;2023-07-20T21:12:19;1.73;;;1.00;;
49440;SDS011;35317;51.978;6.296;2023-07-20T21:17:20;1.80;;;1.30;;
49440;SDS011;35317;51.978;6.296;2023-07-20T21:22:20;2.33;;;1.40;;
49440;SDS011;35317;51.978;6.296;2023-07-20T21:27:21;2.10;;;1.40;;
49440;SDS011;35317;51.978;6.296;2023-07-20T21:32:22;2.10;;;1.25;;
49440;SDS011;35317;51.978;6.296;2023-07-20T21:37:23;1.92;;;1.38;;
49440;SDS011;35317;51.978;6.296;2023-07-20T21:42:24;3.08;;;1.70;;
49440;SDS011;35317;51.978;6.296;2023-07-20T21:47:24;3.38;;;1.55;;
49440;SDS011;35317;51.978;6.296;2023-07-20T21:52:25;1.45;;;1.33;;
49440;SDS011;35317;51.978;6.296;2023-07-20T21:57:26;2.72;;;1.40;;
49440;SDS011;35317;51.978;6.296;2023-07-20T22:02:27;1.85;;;1.20;;
49440;SDS011;35317;51.978;6.296;2023-07-20T22:07:28;2.17;;;1.30;;
49440;SDS011;35317;51.978;6.296;2023-07-20T22:12:28;2.85;;;1.40;;
49440;SDS011;35317;51.978;6.296;2023-07-20T22:17:29;1.75;;;1.40;;
49440;SDS011;35317;51.978;6.296;2023-07-20T22:22:30;1.77;;;1.48;;
49440;SDS011;35317;51.978;6.296;2023-07-20T22:27:31;2.47;;;1.65;;
49440;SDS011;35317;51.978;6.296;2023-07-20T22:32:32;1.90;;;1.55;;
49440;SDS011;35317;51.978;6.296;2023-07-20T22:37:33;2.15;;;1.80;;
49440;SDS011;35317;51.978;6.296;2023-07-20T22:42:53;2.83;;;1.90;;
49440;SDS011;35317;51.978;6.296;2023-07-20T22:48:12;1.95;;;1.75;;
49440;SDS011;35317;51.978;6.296;2023-07-20T22:53:34;3.80;;;1.90;;
49440;SDS011;35317;51.978;6.296;2023-07-20T22:58:53;1.67;;;1.52;;
49440;SDS011;35317;51.978;6.296;2023-07-20T23:04:13;2.17;;;1.70;;
49440;SDS011;35317;51.978;6.296;2023-07-20T23:09:33;5.22;;;2.30;;
49440;SDS011;35317;51.978;6.296;2023-07-20T23:14:52;2.63;;;1.88;;
49440;SDS011;35317;51.978;6.296;2023-07-20T23:20:12;4.25;;;2.17;;
49440;SDS011;35317;51.978;6.296;2023-07-20T23:30:56;2.55;;;1.92;;
49440;SDS011;35317;51.978;6.296;2023-07-20T23:36:16;3.60;;;2.50;;
49440;SDS011;35317;51.978;6.296;2023-07-20T23:41:35;2.90;;;2.30;;
49440;SDS011;35317;51.978;6.296;2023-07-20T23:46:54;3.25;;;2.33;;
49440;SDS011;35317;51.978;6.296;2023-07-20T23:52:14;2.50;;;2.05;;
49440;SDS011;35317;51.978;6.296;2023-07-20T23:57:37;4.00;;;2.22;;
